^^
Saratoga-Weather Station Historical Data
Daily Summary for April 8, 2021 Units:  Both    English   Metric
Daily Weekly Monthly Yearly Custom
  High: Low: Average:
Temperature: 78.3 °F /  25.7 °C 61.2 °F /  16.2 °C 67.8 °F /  19.9 °C
Dew Point: 64.9 °F /  18.3 °C 56.3 °F /  13.5 °C 59.9 °F /  15.5 °C
Humidity: 95% 57% 77%
Wind Speed: 8.1mph /  13km/h - 1.4mph /  2.2km/h
Wind Gust: 9mph /  14.5km/h - -
Wind- - SSW
Pressure: 30.2 in /  1021.3 hPa 30.1 in /  1019.0 hPa -
Precipitation: 0.05 in /  1.3 mm    
Historical Graphs
 
 
Tabular Data for April 8, 2021
Time Temperature Dew Point Pressure Wind Wind Speed Wind Gust Humidity Rainfall Rate (Hourly) solar
00:01 64.2 °F /  17.9 °C 58.6 °F /  14.8 °C 30.2in /  1021.0hPa Calm   2mph /  3.2km/h 82% 0in /  0.0mm 0 W/m2
00:06 64.2 °F /  17.9 °C 58.6 °F /  14.8 °C 30.2in /  1021.0hPa NE 0.9mph /  1.4km/h 2mph /  3.2km/h 82% 0in /  0.0mm 0 W/m2
00:11 64 °F /  17.8 °C 58.8 °F /  14.9 °C 30.2in /  1021.0hPa WNW 0.9mph /  1.4km/h 3mph /  4.8km/h 83% 0in /  0.0mm 0 W/m2
00:16 64 °F /  17.8 °C 58.8 °F /  14.9 °C 30.2in /  1021.0hPa Calm   2mph /  3.2km/h 83% 0in /  0.0mm 0 W/m2
00:21 64 °F /  17.8 °C 58.8 °F /  14.9 °C 30.2in /  1021.0hPa Calm   2mph /  3.2km/h 83% 0in /  0.0mm 0 W/m2
00:26 63.9 °F /  17.7 °C 58.6 °F /  14.8 °C 30.2in /  1021.0hPa Calm   2mph /  3.2km/h 83% 0in /  0.0mm 0 W/m2
00:31 63.9 °F /  17.7 °C 58.6 °F /  14.8 °C 30.2in /  1021.0hPa Calm   1mph /  1.6km/h 83% 0in /  0.0mm 0 W/m2
00:36 63.9 °F /  17.7 °C 58.6 °F /  14.8 °C 30.2in /  1021.0hPa NE 2mph /  3.2km/h 3mph /  4.8km/h 83% 0in /  0.0mm 0 W/m2
00:41 63.7 °F /  17.6 °C 58.5 °F /  14.7 °C 30.2in /  1021.0hPa Calm   2mph /  3.2km/h 83% 0in /  0.0mm 0 W/m2
00:46 63.7 °F /  17.6 °C 58.8 °F /  14.9 °C 30.2in /  1021.0hPa Calm     84% 0in /  0.0mm 0 W/m2
00:51 63.5 °F /  17.5 °C 58.6 °F /  14.8 °C 30.2in /  1021.0hPa NE 0.9mph /  1.4km/h 1mph /  1.6km/h 84% 0in /  0.0mm 0 W/m2
00:56 63.3 °F /  17.4 °C 58.5 °F /  14.7 °C 30.2in /  1021.0hPa SE 2mph /  3.2km/h 2mph /  3.2km/h 84% 0in /  0.0mm 0 W/m2
01:01 63.3 °F /  17.4 °C 58.5 °F /  14.7 °C 30.2in /  1021.0hPa Calm   1mph /  1.6km/h 84% 0in /  0.0mm 0 W/m2
01:06 63.3 °F /  17.4 °C 58.5 °F /  14.7 °C 30.1in /  1020.7hPa NW 0.9mph /  1.4km/h 2mph /  3.2km/h 84% 0in /  0.0mm 0 W/m2
01:11 63.3 °F /  17.4 °C 58.5 °F /  14.7 °C 30.1in /  1020.7hPa WNW 2.9mph /  4.7km/h 3mph /  4.8km/h 84% 0in /  0.0mm 0 W/m2
01:16 63.3 °F /  17.4 °C 58.5 °F /  14.7 °C 30.1in /  1020.7hPa Calm     84% 0in /  0.0mm 0 W/m2
01:21 63.3 °F /  17.4 °C 58.5 °F /  14.7 °C 30.1in /  1020.7hPa NNW 2.9mph /  4.7km/h 4mph /  6.4km/h 84% 0in /  0.0mm 0 W/m2
01:26 63.3 °F /  17.4 °C 58.5 °F /  14.7 °C 30.1in /  1020.7hPa NNW 2.9mph /  4.7km/h 3mph /  4.8km/h 84% 0in /  0.0mm 0 W/m2
01:31 63.3 °F /  17.4 °C 58.5 °F /  14.7 °C 30.1in /  1020.7hPa NNW 0.9mph /  1.4km/h 3mph /  4.8km/h 84% 0in /  0.0mm 0 W/m2
01:36 63.3 °F /  17.4 °C 58.5 °F /  14.7 °C 30.1in /  1020.7hPa West 2mph /  3.2km/h 2mph /  3.2km/h 84% 0in /  0.0mm 0 W/m2
01:41 63.3 °F /  17.4 °C 58.5 °F /  14.7 °C 30.1in /  1020.7hPa NW 0.9mph /  1.4km/h 3mph /  4.8km/h 84% 0in /  0.0mm 0 W/m2
01:46 63.3 °F /  17.4 °C 58.5 °F /  14.7 °C 30.1in /  1020.7hPa Calm   2mph /  3.2km/h 84% 0in /  0.0mm 0 W/m2
01:51 63.1 °F /  17.3 °C 58.3 °F /  14.6 °C 30.1in /  1020.7hPa Calm   1mph /  1.6km/h 84% 0in /  0.0mm 0 W/m2
01:56 63.1 °F /  17.3 °C 58.3 °F /  14.6 °C 30.1in /  1020.7hPa Calm   3mph /  4.8km/h 84% 0in /  0.0mm 0 W/m2
02:01 63.1 °F /  17.3 °C 58.3 °F /  14.6 °C 30.1in /  1020.7hPa Calm   1mph /  1.6km/h 84% 0in /  0.0mm 0 W/m2
02:06 63.1 °F /  17.3 °C 58.3 °F /  14.6 °C 30.1in /  1020.7hPa Calm   2mph /  3.2km/h 84% 0in /  0.0mm 0 W/m2
02:11 63 °F /  17.2 °C 57.7 °F /  14.3 °C 30.1in /  1020.7hPa Calm   2mph /  3.2km/h 83% 0in /  0.0mm 0 W/m2
02:16 63 °F /  17.2 °C 57.7 °F /  14.3 °C 30.1in /  1020.7hPa Calm   1mph /  1.6km/h 83% 0in /  0.0mm 0 W/m2
02:21 63 °F /  17.2 °C 57.7 °F /  14.3 °C 30.1in /  1020.7hPa Calm   1mph /  1.6km/h 83% 0in /  0.0mm 0 W/m2
02:26 62.8 °F /  17.1 °C 57.6 °F /  14.2 °C 30.1in /  1020.7hPa Calm   2mph /  3.2km/h 83% 0in /  0.0mm 0 W/m2
02:31 62.8 °F /  17.1 °C 57.9 °F /  14.4 °C 30.1in /  1020.7hPa Calm     84% 0in /  0.0mm 0 W/m2
02:36 62.6 °F /  17 °C 57.7 °F /  14.3 °C 30.1in /  1020.7hPa SSE 2mph /  3.2km/h 2mph /  3.2km/h 84% 0in /  0.0mm 0 W/m2
02:41 62.4 °F /  16.9 °C 57.9 °F /  14.4 °C 30.1in /  1020.7hPa ESE 0.9mph /  1.4km/h 2mph /  3.2km/h 85% 0in /  0.0mm 0 W/m2
02:46 62.2 °F /  16.8 °C 57.7 °F /  14.3 °C 30.1in /  1020.7hPa Calm     85% 0in /  0.0mm 0 W/m2
02:51 62.2 °F /  16.8 °C 57.4 °F /  14.1 °C 30.1in /  1020.7hPa Calm   1mph /  1.6km/h 84% 0in /  0.0mm 0 W/m2
02:56 62.4 °F /  16.9 °C 57.9 °F /  14.4 °C 30.1in /  1020.7hPa Calm   2mph /  3.2km/h 85% 0in /  0.0mm 0 W/m2
03:01 62.2 °F /  16.8 °C 57.7 °F /  14.3 °C 30.1in /  1020.7hPa Calm   1mph /  1.6km/h 85% 0in /  0.0mm 0 W/m2
03:06 62.4 °F /  16.9 °C 57.6 °F /  14.2 °C 30.1in /  1020.7hPa ENE 0.9mph /  1.4km/h 2mph /  3.2km/h 84% 0in /  0.0mm 0 W/m2
03:11 62.4 °F /  16.9 °C 57.6 °F /  14.2 °C 30.1in /  1020.7hPa Calm   1mph /  1.6km/h 84% 0in /  0.0mm 0 W/m2
03:16 62.4 °F /  16.9 °C 57.6 °F /  14.2 °C 30.1in /  1020.7hPa Calm     84% 0in /  0.0mm 0 W/m2
03:21 62.4 °F /  16.9 °C 57.9 °F /  14.4 °C 30.1in /  1020.3hPa Calm     85% 0in /  0.0mm 0 W/m2
03:27 62.2 °F /  16.8 °C 57.7 °F /  14.3 °C 30.1in /  1020.3hPa Calm     85% 0in /  0.0mm 0 W/m2
03:32 62.2 °F /  16.8 °C 57.7 °F /  14.3 °C 30.1in /  1020.3hPa ENE 0.9mph /  1.4km/h 1mph /  1.6km/h 85% 0in /  0.0mm 0 W/m2
03:37 62.2 °F /  16.8 °C 57.4 °F /  14.1 °C 30.1in /  1020.3hPa Calm     84% 0in /  0.0mm 0 W/m2
03:42 62.2 °F /  16.8 °C 57.7 °F /  14.3 °C 30.1in /  1020.3hPa Calm   2mph /  3.2km/h 85% 0in /  0.0mm 0 W/m2
03:47 62.2 °F /  16.8 °C 57.7 °F /  14.3 °C 30.1in /  1020.3hPa East 0.9mph /  1.4km/h 2mph /  3.2km/h 85% 0in /  0.0mm 0 W/m2
03:52 62.2 °F /  16.8 °C 57.7 °F /  14.3 °C 30.1in /  1020.3hPa NE 2mph /  3.2km/h 2mph /  3.2km/h 85% 0in /  0.0mm 0 W/m2
03:57 62.2 °F /  16.8 °C 57.7 °F /  14.3 °C 30.1in /  1020.3hPa NE 0.9mph /  1.4km/h 1mph /  1.6km/h 85% 0in /  0.0mm 0 W/m2
04:02 62.2 °F /  16.8 °C 57.7 °F /  14.3 °C 30.1in /  1020.3hPa Calm     85% 0in /  0.0mm 0 W/m2
04:07 62.1 °F /  16.7 °C 57.6 °F /  14.2 °C 30.1in /  1020.3hPa NE 0.9mph /  1.4km/h 1mph /  1.6km/h 85% 0in /  0.0mm 0 W/m2
04:12 61.9 °F /  16.6 °C 57.4 °F /  14.1 °C 30.1in /  1020.3hPa South 0.9mph /  1.4km/h 2mph /  3.2km/h 85% 0in /  0.0mm 0 W/m2
04:17 61.9 °F /  16.6 °C 57.4 °F /  14.1 °C 30.1in /  1020.3hPa Calm   2mph /  3.2km/h 85% 0in /  0.0mm 0 W/m2
04:22 61.9 °F /  16.6 °C 57.4 °F /  14.1 °C 30.1in /  1020.7hPa West 0.9mph /  1.4km/h 1mph /  1.6km/h 85% 0in /  0.0mm 0 W/m2
04:27 61.9 °F /  16.6 °C 57.4 °F /  14.1 °C 30.1in /  1020.7hPa Calm     85% 0in /  0.0mm 0 W/m2
04:32 61.9 °F /  16.6 °C 57.4 °F /  14.1 °C 30.1in /  1020.7hPa East 2mph /  3.2km/h 3mph /  4.8km/h 85% 0in /  0.0mm 0 W/m2
04:37 61.7 °F /  16.5 °C 57.2 °F /  14 °C 30.1in /  1020.7hPa Calm   1mph /  1.6km/h 85% 0in /  0.0mm 0 W/m2
04:42 61.7 °F /  16.5 °C 57.2 °F /  14 °C 30.1in /  1020.7hPa Calm     85% 0in /  0.0mm 0 W/m2
04:47 61.5 °F /  16.4 °C 57 °F /  13.9 °C 30.1in /  1020.7hPa WSW 0.9mph /  1.4km/h 2mph /  3.2km/h 85% 0in /  0.0mm 0 W/m2
04:52 61.3 °F /  16.3 °C 56.8 °F /  13.8 °C 30.1in /  1020.7hPa Calm   2mph /  3.2km/h 85% 0in /  0.0mm 0 W/m2
04:57 61.3 °F /  16.3 °C 56.8 °F /  13.8 °C 30.1in /  1020.7hPa WSW 0.9mph /  1.4km/h 2mph /  3.2km/h 85% 0in /  0.0mm 0 W/m2
05:02 61.3 °F /  16.3 °C 56.8 °F /  13.8 °C 30.1in /  1020.7hPa Calm   2mph /  3.2km/h 85% 0in /  0.0mm 0 W/m2
05:07 61.3 °F /  16.3 °C 56.8 °F /  13.8 °C 30.1in /  1020.7hPa Calm   2mph /  3.2km/h 85% 0in /  0.0mm 0 W/m2
05:12 61.3 °F /  16.3 °C 57.2 °F /  14 °C 30.1in /  1020.7hPa Calm     86% 0in /  0.0mm 0 W/m2
05:17 61.2 °F /  16.2 °C 57 °F /  13.9 °C 30.1in /  1020.7hPa Calm   1mph /  1.6km/h 86% 0in /  0.0mm 0 W/m2
05:22 61.2 °F /  16.2 °C 57 °F /  13.9 °C 30.2in /  1021.0hPa Calm   1mph /  1.6km/h 86% 0in /  0.0mm 0 W/m2
05:27 61.2 °F /  16.2 °C 57 °F /  13.9 °C 30.2in /  1021.0hPa Calm     86% 0in /  0.0mm 0 W/m2
05:32 61.2 °F /  16.2 °C 57 °F /  13.9 °C 30.2in /  1021.0hPa West 2.9mph /  4.7km/h 4mph /  6.4km/h 86% 0in /  0.0mm 0 W/m2
05:37 61.2 °F /  16.2 °C 56.7 °F /  13.7 °C 30.2in /  1021.0hPa WNW 0.9mph /  1.4km/h 2mph /  3.2km/h 85% 0in /  0.0mm 0 W/m2
05:42 61.2 °F /  16.2 °C 56.7 °F /  13.7 °C 30.1in /  1020.7hPa Calm   1mph /  1.6km/h 85% 0in /  0.0mm 5 W/m2
05:47 61.3 °F /  16.3 °C 56.5 °F /  13.6 °C 30.2in /  1021.0hPa WNW 2mph /  3.2km/h 2mph /  3.2km/h 84% 0in /  0.0mm 5 W/m2
05:52 61.3 °F /  16.3 °C 56.5 °F /  13.6 °C 30.2in /  1021.0hPa West 2mph /  3.2km/h 7mph /  11.3km/h 84% 0in /  0.0mm 7 W/m2
05:57 61.5 °F /  16.4 °C 56.7 °F /  13.7 °C 30.2in /  1021.0hPa WSW 0.9mph /  1.4km/h 2mph /  3.2km/h 84% 0in /  0.0mm 9 W/m2
06:02 61.5 °F /  16.4 °C 56.3 °F /  13.5 °C 30.2in /  1021.0hPa Calm   7mph /  11.3km/h 83% 0in /  0.0mm 12 W/m2
06:07 61.5 °F /  16.4 °C 56.3 °F /  13.5 °C 30.2in /  1021.0hPa WSW 0.9mph /  1.4km/h 2mph /  3.2km/h 83% 0in /  0.0mm 21 W/m2
06:12 61.5 °F /  16.4 °C 56.3 °F /  13.5 °C 30.2in /  1021.0hPa West 0.9mph /  1.4km/h 2mph /  3.2km/h 83% 0in /  0.0mm 25 W/m2
06:17 61.7 °F /  16.5 °C 56.5 °F /  13.6 °C 30.2in /  1021.0hPa WNW 0.9mph /  1.4km/h 1mph /  1.6km/h 83% 0in /  0.0mm 26 W/m2
06:22 61.7 °F /  16.5 °C 56.5 °F /  13.6 °C 30.2in /  1021.0hPa Calm   2mph /  3.2km/h 83% 0in /  0.0mm 21 W/m2
06:27 61.5 °F /  16.4 °C 56.3 °F /  13.5 °C 30.2in /  1021.0hPa WNW 0.9mph /  1.4km/h 1mph /  1.6km/h 83% 0in /  0.0mm 18 W/m2
06:32 61.5 °F /  16.4 °C 56.7 °F /  13.7 °C 30.2in /  1021.0hPa West 2.9mph /  4.7km/h 3mph /  4.8km/h 84% 0in /  0.0mm 16 W/m2
06:37 61.5 °F /  16.4 °C 56.3 °F /  13.5 °C 30.2in /  1021.0hPa Calm   1mph /  1.6km/h 83% 0in /  0.0mm 18 W/m2
06:42 61.7 °F /  16.5 °C 56.5 °F /  13.6 °C 30.2in /  1021.0hPa West 2mph /  3.2km/h 3mph /  4.8km/h 83% 0in /  0.0mm 21 W/m2
06:47 61.9 °F /  16.6 °C 56.7 °F /  13.7 °C 30.2in /  1021.0hPa WNW 0.9mph /  1.4km/h 2mph /  3.2km/h 83% 0in /  0.0mm 26 W/m2
06:52 61.9 °F /  16.6 °C 56.7 °F /  13.7 °C 30.2in /  1021.0hPa Calm     83% 0in /  0.0mm 32 W/m2
06:57 61.9 °F /  16.6 °C 56.7 °F /  13.7 °C 30.2in /  1021.0hPa Calm   2mph /  3.2km/h 83% 0in /  0.0mm 44 W/m2
07:02 61.9 °F /  16.6 °C 56.7 °F /  13.7 °C 30.2in /  1021.0hPa Calm   3mph /  4.8km/h 83% 0in /  0.0mm 70 W/m2
07:07 62.1 °F /  16.7 °C 56.8 °F /  13.8 °C 30.2in /  1021.0hPa ENE 0.9mph /  1.4km/h 3mph /  4.8km/h 83% 0in /  0.0mm 83 W/m2
07:12 62.2 °F /  16.8 °C 57 °F /  13.9 °C 30.2in /  1021.0hPa Calm     83% 0in /  0.0mm 88 W/m2
07:17 62.2 °F /  16.8 °C 56.7 °F /  13.7 °C 30.2in /  1021.0hPa NE 0.9mph /  1.4km/h 4mph /  6.4km/h 82% 0in /  0.0mm 102 W/m2
07:22 62.4 °F /  16.9 °C 56.8 °F /  13.8 °C 30.2in /  1021.0hPa ENE 2mph /  3.2km/h 3mph /  4.8km/h 82% 0in /  0.0mm 118 W/m2
07:27 62.6 °F /  17 °C 56.7 °F /  13.7 °C 30.2in /  1021.3hPa North 2.9mph /  4.7km/h 4mph /  6.4km/h 81% 0in /  0.0mm 107 W/m2
07:32 62.8 °F /  17.1 °C 56.8 °F /  13.8 °C 30.2in /  1021.3hPa NE 0.9mph /  1.4km/h 2mph /  3.2km/h 81% 0in /  0.0mm 93 W/m2
07:37 62.8 °F /  17.1 °C 56.8 °F /  13.8 °C 30.2in /  1021.3hPa WNW 0.9mph /  1.4km/h 3mph /  4.8km/h 81% 0in /  0.0mm 95 W/m2
07:42 62.8 °F /  17.1 °C 56.8 °F /  13.8 °C 30.2in /  1021.3hPa WNW 2mph /  3.2km/h 2mph /  3.2km/h 81% 0in /  0.0mm 90 W/m2
07:47 63 °F /  17.2 °C 57 °F /  13.9 °C 30.2in /  1021.3hPa WSW 0.9mph /  1.4km/h 2mph /  3.2km/h 81% 0in /  0.0mm 95 W/m2
07:52 63 °F /  17.2 °C 57 °F /  13.9 °C 30.2in /  1021.3hPa WNW 2.9mph /  4.7km/h 7mph /  11.3km/h 81% 0in /  0.0mm 95 W/m2
07:57 63 °F /  17.2 °C 57 °F /  13.9 °C 30.2in /  1021.3hPa North 2mph /  3.2km/h 5mph /  8km/h 81% 0in /  0.0mm 95 W/m2
08:02 63 °F /  17.2 °C 57 °F /  13.9 °C 30.2in /  1021.3hPa NW 2mph /  3.2km/h 7mph /  11.3km/h 81% 0in /  0.0mm 111 W/m2
08:07 63 °F /  17.2 °C 57 °F /  13.9 °C 30.2in /  1021.3hPa Calm   3mph /  4.8km/h 81% 0in /  0.0mm 128 W/m2
08:12 63.1 °F /  17.3 °C 57.2 °F /  14 °C 30.2in /  1021.3hPa NE 2mph /  3.2km/h 3mph /  4.8km/h 81% 0in /  0.0mm 146 W/m2
08:17 63.3 °F /  17.4 °C 57.4 °F /  14.1 °C 30.2in /  1021.0hPa NNE 0.9mph /  1.4km/h 1mph /  1.6km/h 81% 0in /  0.0mm 171 W/m2
08:22 63.5 °F /  17.5 °C 57.6 °F /  14.2 °C 30.2in /  1021.0hPa ESE 2mph /  3.2km/h 4mph /  6.4km/h 81% 0in /  0.0mm 206 W/m2
08:27 63.9 °F /  17.7 °C 57.6 °F /  14.2 °C 30.2in /  1021.0hPa Calm   4mph /  6.4km/h 80% 0in /  0.0mm 211 W/m2
08:32 64.2 °F /  17.9 °C 57.9 °F /  14.4 °C 30.2in /  1021.0hPa NE 2.9mph /  4.7km/h 3mph /  4.8km/h 80% 0in /  0.0mm 171 W/m2
08:37 64.4 °F /  18 °C 58.1 °F /  14.5 °C 30.2in /  1021.0hPa ESE 0.9mph /  1.4km/h 4mph /  6.4km/h 80% 0in /  0.0mm 144 W/m2
08:42 64.8 °F /  18.2 °C 58.1 °F /  14.5 °C 30.2in /  1021.0hPa North 2.9mph /  4.7km/h 4mph /  6.4km/h 79% 0in /  0.0mm 144 W/m2
08:47 64.9 °F /  18.3 °C 57.9 °F /  14.4 °C 30.2in /  1021.0hPa WNW 2mph /  3.2km/h 3mph /  4.8km/h 78% 0in /  0.0mm 186 W/m2
08:52 65.1 °F /  18.4 °C 58.5 °F /  14.7 °C 30.2in /  1021.0hPa WNW 2.9mph /  4.7km/h 4mph /  6.4km/h 79% 0in /  0.0mm 211 W/m2
08:57 65.1 °F /  18.4 °C 58.5 °F /  14.7 °C 30.2in /  1021.0hPa WNW 2.9mph /  4.7km/h 3mph /  4.8km/h 79% 0in /  0.0mm 188 W/m2
09:02 65.5 °F /  18.6 °C 58.5 °F /  14.7 °C 30.2in /  1021.3hPa ENE 0.9mph /  1.4km/h 6mph /  9.7km/h 78% 0in /  0.0mm 165 W/m2
09:07 65.3 °F /  18.5 °C 58.3 °F /  14.6 °C 30.2in /  1021.3hPa Calm   2mph /  3.2km/h 78% 0in /  0.0mm 162 W/m2
09:12 65.1 °F /  18.4 °C 58.1 °F /  14.5 °C 30.2in /  1021.3hPa Calm   6mph /  9.7km/h 78% 0in /  0.0mm 220 W/m2
09:17 65.1 °F /  18.4 °C 58.5 °F /  14.7 °C 30.2in /  1021.3hPa NNW 2mph /  3.2km/h 2mph /  3.2km/h 79% 0in /  0.0mm 213 W/m2
09:22 65.1 °F /  18.4 °C 58.5 °F /  14.7 °C 30.2in /  1021.3hPa Calm   2mph /  3.2km/h 79% 0in /  0.0mm 195 W/m2
09:27 65.3 °F /  18.5 °C 59 °F /  15 °C 30.2in /  1021.3hPa ESE 2mph /  3.2km/h 3mph /  4.8km/h 80% 0in /  0.0mm 193 W/m2
09:32 65.5 °F /  18.6 °C 58.8 °F /  14.9 °C 30.2in /  1021.3hPa ENE 4mph /  6.4km/h 4mph /  6.4km/h 79% 0in /  0.0mm 179 W/m2
09:37 65.5 °F /  18.6 °C 58.8 °F /  14.9 °C 30.2in /  1021.3hPa NW 2.9mph /  4.7km/h 4mph /  6.4km/h 79% 0in /  0.0mm 199 W/m2
09:42 65.5 °F /  18.6 °C 59.2 °F /  15.1 °C 30.2in /  1021.0hPa NW 0.9mph /  1.4km/h 3mph /  4.8km/h 80% 0in /  0.0mm 318 W/m2
09:47 65.5 °F /  18.6 °C 58.8 °F /  14.9 °C 30.2in /  1021.0hPa ESE 0.9mph /  1.4km/h 4mph /  6.4km/h 79% 0in /  0.0mm 195 W/m2
09:52 65.8 °F /  18.8 °C 59.2 °F /  15.1 °C 30.2in /  1021.0hPa West 2.9mph /  4.7km/h 4mph /  6.4km/h 79% 0in /  0.0mm 575 W/m2
09:57 66 °F /  18.9 °C 59 °F /  15 °C 30.2in /  1021.0hPa Calm   4mph /  6.4km/h 78% 0in /  0.0mm 584 W/m2
10:02 66.7 °F /  19.3 °C 60.1 °F /  15.6 °C 30.2in /  1021.3hPa East 2.9mph /  4.7km/h 5mph /  8km/h 79% 0in /  0.0mm 536 W/m2
10:07 67.3 °F /  19.6 °C 59.9 °F /  15.5 °C 30.2in /  1021.0hPa WNW 2mph /  3.2km/h 4mph /  6.4km/h 77% 0in /  0.0mm 149 W/m2
10:12 67.5 °F /  19.7 °C 59.5 °F /  15.3 °C 30.2in /  1021.3hPa North 0.9mph /  1.4km/h 5mph /  8km/h 76% 0in /  0.0mm 230 W/m2
10:17 67.6 °F /  19.8 °C 59.7 °F /  15.4 °C 30.2in /  1021.3hPa WNW 2.9mph /  4.7km/h 5mph /  8km/h 76% 0in /  0.0mm 631 W/m2
10:22 68.2 °F /  20.1 °C 60.3 °F /  15.7 °C 30.2in /  1021.0hPa NE 2.9mph /  4.7km/h 6mph /  9.7km/h 76% 0in /  0.0mm 631 W/m2
10:27 68.7 °F /  20.4 °C 60.8 °F /  16 °C 30.2in /  1021.0hPa ENE 2mph /  3.2km/h 3mph /  4.8km/h 76% 0in /  0.0mm 643 W/m2
10:32 69.4 °F /  20.8 °C 60.4 °F /  15.8 °C 30.2in /  1021.0hPa WNW 2.9mph /  4.7km/h 6mph /  9.7km/h 73% 0in /  0.0mm 680 W/m2
10:37 69.6 °F /  20.9 °C 60.3 °F /  15.7 °C 30.2in /  1021.0hPa NNW 0.9mph /  1.4km/h 4mph /  6.4km/h 72% 0in /  0.0mm 694 W/m2
10:42 69.8 °F /  21 °C 61.2 °F /  16.2 °C 30.2in /  1021.0hPa NNE 4.9mph /  7.9km/h 5mph /  8km/h 74% 0in /  0.0mm 712 W/m2
10:47 70.2 °F /  21.2 °C 60.6 °F /  15.9 °C 30.2in /  1021.0hPa ENE 2mph /  3.2km/h 7mph /  11.3km/h 72% 0in /  0.0mm 689 W/m2
10:52 70.2 °F /  21.2 °C 60.3 °F /  15.7 °C 30.2in /  1021.0hPa Calm   3mph /  4.8km/h 71% 0in /  0.0mm 322 W/m2
10:57 70.2 °F /  21.2 °C 60.6 °F /  15.9 °C 30.2in /  1021.0hPa NNW 2mph /  3.2km/h 3mph /  4.8km/h 72% 0in /  0.0mm 780 W/m2
11:02 70.3 °F /  21.3 °C 60.8 °F /  16 °C 30.2in /  1021.0hPa ENE 4.9mph /  7.9km/h 6mph /  9.7km/h 72% 0in /  0.0mm 742 W/m2
11:07 70.5 °F /  21.4 °C 61 °F /  16.1 °C 30.2in /  1021.0hPa Calm   2mph /  3.2km/h 72% 0in /  0.0mm 798 W/m2
11:12 71.2 °F /  21.8 °C 61.3 °F /  16.3 °C 30.2in /  1021.0hPa WNW 2.9mph /  4.7km/h 6mph /  9.7km/h 71% 0in /  0.0mm 791 W/m2
11:17 71.4 °F /  21.9 °C 59.9 °F /  15.5 °C 30.1in /  1020.7hPa WNW 2.9mph /  4.7km/h 5mph /  8km/h 67% 0in /  0.0mm 795 W/m2
11:22 71.2 °F /  21.8 °C 60.1 °F /  15.6 °C 30.1in /  1020.7hPa WNW 0.9mph /  1.4km/h 4mph /  6.4km/h 68% 0in /  0.0mm 689 W/m2
11:27 71.4 °F /  21.9 °C 60.8 °F /  16 °C 30.1in /  1020.7hPa ESE 2mph /  3.2km/h 6mph /  9.7km/h 69% 0in /  0.0mm 612 W/m2
11:32 71.8 °F /  22.1 °C 60.3 °F /  15.7 °C 30.1in /  1020.7hPa West 2mph /  3.2km/h 3mph /  4.8km/h 67% 0in /  0.0mm 840 W/m2
11:37 71.8 °F /  22.1 °C 59 °F /  15 °C 30.1in /  1020.7hPa North 0.9mph /  1.4km/h 5mph /  8km/h 64% 0in /  0.0mm 912 W/m2
11:42 72.1 °F /  22.3 °C 60.6 °F /  15.9 °C 30.1in /  1020.7hPa East 0.9mph /  1.4km/h 4mph /  6.4km/h 67% 0in /  0.0mm 932 W/m2
11:47 73 °F /  22.8 °C 61.9 °F /  16.6 °C 30.1in /  1020.7hPa SE 0.9mph /  1.4km/h 2mph /  3.2km/h 68% 0in /  0.0mm 993 W/m2
11:52 73.9 °F /  23.3 °C 61.3 °F /  16.3 °C 30.1in /  1020.7hPa ENE 2mph /  3.2km/h 4mph /  6.4km/h 65% 0in /  0.0mm 998 W/m2
11:57 74.1 °F /  23.4 °C 61.2 °F /  16.2 °C 30.1in /  1020.7hPa ENE 2mph /  3.2km/h 4mph /  6.4km/h 64% 0in /  0.0mm 415 W/m2
12:03 73.8 °F /  23.2 °C 61.7 °F /  16.5 °C 30.1in /  1020.7hPa ENE 2mph /  3.2km/h 4mph /  6.4km/h 66% 0in /  0.0mm 401 W/m2
12:08 73.2 °F /  22.9 °C 60.8 °F /  16 °C 30.1in /  1020.7hPa ENE 2mph /  3.2km/h 3mph /  4.8km/h 65% 0in /  0.0mm 357 W/m2
12:13 73 °F /  22.8 °C 61 °F /  16.1 °C 30.1in /  1020.7hPa East 2mph /  3.2km/h 3mph /  4.8km/h 66% 0in /  0.0mm 294 W/m2
12:18 72.9 °F /  22.7 °C 61.3 °F /  16.3 °C 30.1in /  1020.7hPa Calm   1mph /  1.6km/h 67% 0in /  0.0mm 272 W/m2
12:23 72.9 °F /  22.7 °C 61.3 °F /  16.3 °C 30.1in /  1020.7hPa SW 2mph /  3.2km/h 2mph /  3.2km/h 67% 0in /  0.0mm 243 W/m2
12:28 72.7 °F /  22.6 °C 60.6 °F /  15.9 °C 30.1in /  1020.7hPa SE 4.9mph /  7.9km/h 7mph /  11.3km/h 66% 0in /  0.0mm 225 W/m2
12:33 72.1 °F /  22.3 °C 60.1 °F /  15.6 °C 30.1in /  1020.7hPa Calm   3mph /  4.8km/h 66% 0in /  0.0mm 288 W/m2
12:38 72.5 °F /  22.5 °C 61.7 °F /  16.5 °C 30.1in /  1020.7hPa ESE 2.9mph /  4.7km/h 6mph /  9.7km/h 69% 0in /  0.0mm 984 W/m2
12:43 73 °F /  22.8 °C 61.5 °F /  16.4 °C 30.1in /  1020.7hPa ESE 2mph /  3.2km/h 6mph /  9.7km/h 67% 0in /  0.0mm 1032 W/m2
12:48 73.2 °F /  22.9 °C 61.2 °F /  16.2 °C 30.1in /  1020.7hPa NNW 0.9mph /  1.4km/h 3mph /  4.8km/h 66% 0in /  0.0mm 387 W/m2
12:53 73 °F /  22.8 °C 61.5 °F /  16.4 °C 30.1in /  1020.7hPa NE 2mph /  3.2km/h 6mph /  9.7km/h 67% 0in /  0.0mm 371 W/m2
12:58 73 °F /  22.8 °C 61.5 °F /  16.4 °C 30.1in /  1020.7hPa ENE 0.9mph /  1.4km/h 4mph /  6.4km/h 67% 0in /  0.0mm 1056 W/m2
13:03 73.6 °F /  23.1 °C 62.4 °F /  16.9 °C 30.1in /  1020.7hPa ESE 0.9mph /  1.4km/h 6mph /  9.7km/h 68% 0in /  0.0mm 357 W/m2
13:08 73.8 °F /  23.2 °C 62.1 °F /  16.7 °C 30.1in /  1020.7hPa SSE 2mph /  3.2km/h 2mph /  3.2km/h 67% 0in /  0.0mm 330 W/m2
13:13 73.6 °F /  23.1 °C 61.9 °F /  16.6 °C 30.1in /  1020.7hPa NE 2mph /  3.2km/h 5mph /  8km/h 67% 0in /  0.0mm 332 W/m2
13:18 73.4 °F /  23 °C 61.3 °F /  16.3 °C 30.1in /  1020.7hPa NNW 2.9mph /  4.7km/h 3mph /  4.8km/h 66% 0in /  0.0mm 468 W/m2
13:23 73.2 °F /  22.9 °C 61.5 °F /  16.4 °C 30.1in /  1020.7hPa East 4mph /  6.4km/h 5mph /  8km/h 67% 0in /  0.0mm 380 W/m2
13:28 73.2 °F /  22.9 °C 61.5 °F /  16.4 °C 30.1in /  1020.7hPa ENE 2mph /  3.2km/h 3mph /  4.8km/h 67% 0in /  0.0mm 316 W/m2
13:33 73 °F /  22.8 °C 61.5 °F /  16.4 °C 30.1in /  1020.7hPa ESE 2mph /  3.2km/h 2mph /  3.2km/h 67% 0in /  0.0mm 285 W/m2
13:38 73 °F /  22.8 °C 61.5 °F /  16.4 °C 30.1in /  1020.7hPa ENE 2.9mph /  4.7km/h 4mph /  6.4km/h 67% 0in /  0.0mm 396 W/m2
13:43 73 °F /  22.8 °C 61.9 °F /  16.6 °C 30.1in /  1020.7hPa SE 0.9mph /  1.4km/h 2mph /  3.2km/h 68% 0in /  0.0mm 362 W/m2
13:48 73.8 °F /  23.2 °C 61.7 °F /  16.5 °C 30.1in /  1020.3hPa NNW 0.9mph /  1.4km/h 2mph /  3.2km/h 66% 0in /  0.0mm 1067 W/m2
13:53 74.3 °F /  23.5 °C 61.3 °F /  16.3 °C 30.1in /  1020.3hPa NE 2mph /  3.2km/h 4mph /  6.4km/h 64% 0in /  0.0mm 1069 W/m2
13:58 74.3 °F /  23.5 °C 61.7 °F /  16.5 °C 30.1in /  1020.3hPa NE 4mph /  6.4km/h 4mph /  6.4km/h 65% 0in /  0.0mm 308 W/m2
14:03 74.1 °F /  23.4 °C 61.2 °F /  16.2 °C 30.1in /  1020.3hPa ESE 0.9mph /  1.4km/h 2mph /  3.2km/h 64% 0in /  0.0mm 220 W/m2
14:08 73.9 °F /  23.3 °C 61.3 °F /  16.3 °C 30.1in /  1020.3hPa Calm   4mph /  6.4km/h 65% 0in /  0.0mm 156 W/m2
14:13 73.8 °F /  23.2 °C 60.8 °F /  16 °C 30.1in /  1020.3hPa NW 0.9mph /  1.4km/h 5mph /  8km/h 64% 0in /  0.0mm 139 W/m2
14:18 73.4 °F /  23 °C 61 °F /  16.1 °C 30.1in /  1020.3hPa NW 0.9mph /  1.4km/h 3mph /  4.8km/h 65% 0in /  0.0mm 153 W/m2
14:23 73.2 °F /  22.9 °C 60.8 °F /  16 °C 30.1in /  1020.0hPa North 2mph /  3.2km/h 5mph /  8km/h 65% 0in /  0.0mm 167 W/m2
14:28 73 °F /  22.8 °C 61.5 °F /  16.4 °C 30.1in /  1020.3hPa West 2mph /  3.2km/h 8mph /  12.9km/h 67% 0in /  0.0mm 174 W/m2
14:33 72.9 °F /  22.7 °C 61.7 °F /  16.5 °C 30.1in /  1020.3hPa West 2.9mph /  4.7km/h 6mph /  9.7km/h 68% 0in /  0.0mm 181 W/m2
14:38 72.3 °F /  22.4 °C 62.1 °F /  16.7 °C 30.1in /  1020.0hPa WSW 2.9mph /  4.7km/h 8mph /  12.9km/h 70% 0in /  0.0mm 200 W/m2
14:43 72.1 °F /  22.3 °C 61.3 °F /  16.3 °C 30.1in /  1020.0hPa West 2mph /  3.2km/h 4mph /  6.4km/h 69% 0in /  0.0mm 204 W/m2
14:48 72.1 °F /  22.3 °C 61.9 °F /  16.6 °C 30.1in /  1020.0hPa West 2mph /  3.2km/h 6mph /  9.7km/h 70% 0in /  0.0mm 169 W/m2
14:53 72 °F /  22.2 °C 61.7 °F /  16.5 °C 30.1in /  1020.0hPa West 2.9mph /  4.7km/h 6mph /  9.7km/h 70% 0in /  0.0mm 227 W/m2
14:58 72.3 °F /  22.4 °C 62.1 °F /  16.7 °C 30.1in /  1020.0hPa WSW 2.9mph /  4.7km/h 6mph /  9.7km/h 70% 0in /  0.0mm 773 W/m2
15:03 73.2 °F /  22.9 °C 62.4 °F /  16.9 °C 30.1in /  1020.0hPa West 4mph /  6.4km/h 4mph /  6.4km/h 69% 0in /  0.0mm 633 W/m2
15:08 74.5 °F /  23.6 °C 62.8 °F /  17.1 °C 30.1in /  1019.6hPa West 4mph /  6.4km/h 7mph /  11.3km/h 67% 0in /  0.0mm 1139 W/m2
15:13 75 °F /  23.9 °C 62.1 °F /  16.7 °C 30.1in /  1019.6hPa West 6mph /  9.7km/h 6mph /  9.7km/h 64% 0in /  0.0mm 779 W/m2
15:18 75.6 °F /  24.2 °C 63.3 °F /  17.4 °C 30.1in /  1019.6hPa WSW 4mph /  6.4km/h 4mph /  6.4km/h 66% 0in /  0.0mm 710 W/m2
15:23 75.7 °F /  24.3 °C 62.2 °F /  16.8 °C 30.1in /  1019.6hPa West 6mph /  9.7km/h 8mph /  12.9km/h 63% 0in /  0.0mm 740 W/m2
15:28 75.6 °F /  24.2 °C 62.1 °F /  16.7 °C 30.1in /  1019.6hPa West 4mph /  6.4km/h 6mph /  9.7km/h 63% 0in /  0.0mm 1053 W/m2
15:33 75.7 °F /  24.3 °C 61.9 °F /  16.6 °C 30.1in /  1019.6hPa WNW 6.9mph /  11.1km/h 8mph /  12.9km/h 62% 0in /  0.0mm 979 W/m2
15:38 75.6 °F /  24.2 °C 62.1 °F /  16.7 °C 30.1in /  1019.6hPa NW 4mph /  6.4km/h 7mph /  11.3km/h 63% 0in /  0.0mm 849 W/m2
15:43 75.4 °F /  24.1 °C 61.5 °F /  16.4 °C 30.1in /  1019.6hPa WNW 4mph /  6.4km/h 5mph /  8km/h 62% 0in /  0.0mm 374 W/m2
15:48 75.6 °F /  24.2 °C 61.2 °F /  16.2 °C 30.1in /  1019.6hPa NW 2.9mph /  4.7km/h 6mph /  9.7km/h 61% 0in /  0.0mm 963 W/m2
15:53 76.1 °F /  24.5 °C 61.2 °F /  16.2 °C 30.1in /  1019.6hPa North 0.9mph /  1.4km/h 3mph /  4.8km/h 60% 0in /  0.0mm 881 W/m2
15:58 76.8 °F /  24.9 °C 61.3 °F /  16.3 °C 30.1in /  1019.6hPa NE 2mph /  3.2km/h 5mph /  8km/h 59% 0in /  0.0mm 884 W/m2
16:03 77.4 °F /  25.2 °C 61.3 °F /  16.3 °C 30.1in /  1019.6hPa ENE 4.9mph /  7.9km/h 9mph /  14.5km/h 58% 0in /  0.0mm 851 W/m2
16:08 78.1 °F /  25.6 °C 62.6 °F /  17 °C 30.1in /  1019.3hPa East 2.9mph /  4.7km/h 3mph /  4.8km/h 59% 0in /  0.0mm 826 W/m2
16:13 78.3 °F /  25.7 °C 61.7 °F /  16.5 °C 30.1in /  1019.3hPa SW 2mph /  3.2km/h 5mph /  8km/h 57% 0in /  0.0mm 816 W/m2
16:18 77.9 °F /  25.5 °C 61.9 °F /  16.6 °C 30.1in /  1019.3hPa WNW 2.9mph /  4.7km/h 6mph /  9.7km/h 58% 0in /  0.0mm 234 W/m2
16:23 77.2 °F /  25.1 °C 61.3 °F /  16.3 °C 30.1in /  1019.3hPa NW 2.9mph /  4.7km/h 4mph /  6.4km/h 58% 0in /  0.0mm 199 W/m2
16:28 76.6 °F /  24.8 °C 61.2 °F /  16.2 °C 30.1in /  1019.3hPa North 2mph /  3.2km/h 5mph /  8km/h 59% 0in /  0.0mm 756 W/m2
16:33 76.6 °F /  24.8 °C 61.2 °F /  16.2 °C 30.1in /  1019.3hPa WSW 2.9mph /  4.7km/h 7mph /  11.3km/h 59% 0in /  0.0mm 262 W/m2
16:38 76.5 °F /  24.7 °C 61.5 °F /  16.4 °C 30.1in /  1019.3hPa WNW 6.9mph /  11.1km/h 7mph /  11.3km/h 60% 0in /  0.0mm 729 W/m2
16:43 76.5 °F /  24.7 °C 61 °F /  16.1 °C 30.1in /  1019.3hPa West 2mph /  3.2km/h 7mph /  11.3km/h 59% 0in /  0.0mm 816 W/m2
16:48 76.6 °F /  24.8 °C 61.2 °F /  16.2 °C 30.1in /  1019.0hPa WNW 2.9mph /  4.7km/h 7mph /  11.3km/h 59% 0in /  0.0mm 810 W/m2
16:53 77.2 °F /  25.1 °C 61.7 °F /  16.5 °C 30.1in /  1019.0hPa WSW 4.9mph /  7.9km/h 7mph /  11.3km/h 59% 0in /  0.0mm 795 W/m2
16:58 76.8 °F /  24.9 °C 61 °F /  16.1 °C 30.1in /  1019.0hPa West 4mph /  6.4km/h 5mph /  8km/h 58% 0in /  0.0mm 301 W/m2
17:03 76.5 °F /  24.7 °C 60.6 °F /  15.9 °C 30.1in /  1019.0hPa West 2mph /  3.2km/h 4mph /  6.4km/h 58% 0in /  0.0mm 229 W/m2
17:08 76.3 °F /  24.6 °C 61.3 °F /  16.3 °C 30.1in /  1019.0hPa WNW 4mph /  6.4km/h 4mph /  6.4km/h 60% 0in /  0.0mm 216 W/m2
17:13 76.3 °F /  24.6 °C 61.9 °F /  16.6 °C 30.1in /  1019.0hPa NNE 8.1mph /  13km/h 8mph /  12.9km/h 61% 0in /  0.0mm 221 W/m2
17:18 76.3 °F /  24.6 °C 61.3 °F /  16.3 °C 30.1in /  1019.0hPa West 2.9mph /  4.7km/h 5mph /  8km/h 60% 0in /  0.0mm 214 W/m2
17:23 75.9 °F /  24.4 °C 61.5 °F /  16.4 °C 30.1in /  1019.0hPa NW 2.9mph /  4.7km/h 4mph /  6.4km/h 61% 0in /  0.0mm 169 W/m2
17:28 75.6 °F /  24.2 °C 60.6 °F /  15.9 °C 30.1in /  1019.0hPa NNW 2.9mph /  4.7km/h 6mph /  9.7km/h 60% 0in /  0.0mm 139 W/m2
17:33 75.4 °F /  24.1 °C 61 °F /  16.1 °C 30.1in /  1019.0hPa ESE 2.9mph /  4.7km/h 5mph /  8km/h 61% 0in /  0.0mm 125 W/m2
17:38 75.4 °F /  24.1 °C 61 °F /  16.1 °C 30.1in /  1019.0hPa ENE 0.9mph /  1.4km/h 3mph /  4.8km/h 61% 0in /  0.0mm 134 W/m2
17:43 75.4 °F /  24.1 °C 61 °F /  16.1 °C 30.1in /  1019.0hPa West 4mph /  6.4km/h 5mph /  8km/h 61% 0in /  0.0mm 139 W/m2
17:48 75 °F /  23.9 °C 60.6 °F /  15.9 °C 30.1in /  1019.0hPa NNE 2mph /  3.2km/h 7mph /  11.3km/h 61% 0in /  0.0mm 153 W/m2
17:53 75 °F /  23.9 °C 61.2 °F /  16.2 °C 30.1in /  1019.0hPa WNW 4mph /  6.4km/h 7mph /  11.3km/h 62% 0in /  0.0mm 155 W/m2
17:58 74.8 °F /  23.8 °C 61 °F /  16.1 °C 30.1in /  1019.0hPa NNW 2mph /  3.2km/h 4mph /  6.4km/h 62% 0in /  0.0mm 151 W/m2
18:03 74.8 °F /  23.8 °C 61 °F /  16.1 °C 30.1in /  1019.3hPa WSW 2.9mph /  4.7km/h 5mph /  8km/h 62% 0in /  0.0mm 132 W/m2
18:08 74.8 °F /  23.8 °C 61 °F /  16.1 °C 30.1in /  1019.3hPa NNW 0.9mph /  1.4km/h 3mph /  4.8km/h 62% 0in /  0.0mm 113 W/m2
18:13 74.7 °F /  23.7 °C 60.8 °F /  16 °C 30.1in /  1019.3hPa West 2.9mph /  4.7km/h 4mph /  6.4km/h 62% 0in /  0.0mm 105 W/m2
18:18 74.8 °F /  23.8 °C 61 °F /  16.1 °C 30.1in /  1019.3hPa Calm   3mph /  4.8km/h 62% 0in /  0.0mm 114 W/m2
18:23 74.8 °F /  23.8 °C 61 °F /  16.1 °C 30.1in /  1019.3hPa East 2mph /  3.2km/h 3mph /  4.8km/h 62% 0in /  0.0mm 98 W/m2
18:28 74.8 °F /  23.8 °C 61.3 °F /  16.3 °C 30.1in /  1019.3hPa Calm   3mph /  4.8km/h 63% 0in /  0.0mm 97 W/m2
18:33 74.8 °F /  23.8 °C 61.3 °F /  16.3 °C 30.1in /  1019.3hPa ENE 2mph /  3.2km/h 4mph /  6.4km/h 63% 0in /  0.0mm 95 W/m2
18:38 74.7 °F /  23.7 °C 60.8 °F /  16 °C 30.1in /  1019.3hPa ESE 0.9mph /  1.4km/h 4mph /  6.4km/h 62% 0in /  0.0mm 86 W/m2
18:43 74.5 °F /  23.6 °C 60.6 °F /  15.9 °C 30.1in /  1019.3hPa NE 0.9mph /  1.4km/h 2mph /  3.2km/h 62% 0in /  0.0mm 88 W/m2
18:48 74.5 °F /  23.6 °C 60.6 °F /  15.9 °C 30.1in /  1019.3hPa ESE 2mph /  3.2km/h 4mph /  6.4km/h 62% 0in /  0.0mm 90 W/m2
18:53 74.5 °F /  23.6 °C 60.6 °F /  15.9 °C 30.1in /  1019.3hPa ENE 2mph /  3.2km/h 3mph /  4.8km/h 62% 0in /  0.0mm 86 W/m2
18:58 74.5 °F /  23.6 °C 60.6 °F /  15.9 °C 30.1in /  1019.3hPa NNW 2mph /  3.2km/h 4mph /  6.4km/h 62% 0in /  0.0mm 70 W/m2
19:03 74.5 °F /  23.6 °C 60.1 °F /  15.6 °C 30.1in /  1019.3hPa North 0.9mph /  1.4km/h 3mph /  4.8km/h 61% 0in /  0.0mm 65 W/m2
19:08 74.5 °F /  23.6 °C 60.1 °F /  15.6 °C 30.1in /  1019.3hPa ENE 0.9mph /  1.4km/h 2mph /  3.2km/h 61% 0in /  0.0mm 49 W/m2
19:13 74.5 °F /  23.6 °C 60.1 °F /  15.6 °C 30.1in /  1019.3hPa Calm   4mph /  6.4km/h 61% 0in /  0.0mm 42 W/m2
19:18 74.5 °F /  23.6 °C 61 °F /  16.1 °C 30.1in /  1019.3hPa East 2.9mph /  4.7km/h 8mph /  12.9km/h 63% 0in /  0.0mm 42 W/m2
19:23 74.1 °F /  23.4 °C 62.1 °F /  16.7 °C 30.1in /  1019.3hPa ENE 0.9mph /  1.4km/h 2mph /  3.2km/h 66% 0in /  0.0mm 51 W/m2
19:28 73.8 °F /  23.2 °C 62.1 °F /  16.7 °C 30.1in /  1019.3hPa East 0.9mph /  1.4km/h 8mph /  12.9km/h 67% 0in /  0.0mm 56 W/m2
19:33 73 °F /  22.8 °C 61.9 °F /  16.6 °C 30.1in /  1019.3hPa SW 2mph /  3.2km/h 2mph /  3.2km/h 68% 0in /  0.0mm 60 W/m2
19:38 72.7 °F /  22.6 °C 61.5 °F /  16.4 °C 30.1in /  1019.3hPa Calm   2mph /  3.2km/h 68% 0in /  0.0mm 65 W/m2
19:43 72.3 °F /  22.4 °C 61.5 °F /  16.4 °C 30.1in /  1019.3hPa Calm     69% 0in /  0.0mm 65 W/m2
19:48 72.3 °F /  22.4 °C 62.4 °F /  16.9 °C 30.1in /  1019.3hPa ESE 2mph /  3.2km/h 2mph /  3.2km/h 71% 0in /  0.0mm 67 W/m2
19:53 72 °F /  22.2 °C 62.1 °F /  16.7 °C 30.1in /  1019.3hPa Calm   1mph /  1.6km/h 71% 0in /  0.0mm 72 W/m2
19:58 71.4 °F /  21.9 °C 61.9 °F /  16.6 °C 30.1in /  1019.3hPa ESE 0.9mph /  1.4km/h 3mph /  4.8km/h 72% 0in /  0.0mm 79 W/m2
20:03 71.2 °F /  21.8 °C 63 °F /  17.2 °C 30.1in /  1019.3hPa Calm   2mph /  3.2km/h 75% 0in /  0.0mm 86 W/m2
20:08 71.1 °F /  21.7 °C 63.5 °F /  17.5 °C 30.1in /  1019.3hPa Calm   3mph /  4.8km/h 77% 0in /  0.0mm 70 W/m2
20:13 70.7 °F /  21.5 °C 64.2 °F /  17.9 °C 30.1in /  1019.3hPa Calm     80% 0.01in /  0.2mm 69 W/m2
20:18 70.3 °F /  21.3 °C 64.6 °F /  18.1 °C 30.1in /  1019.3hPa Calm   1mph /  1.6km/h 82% 0.02in /  0.5mm 69 W/m2
20:23 70 °F /  21.1 °C 64.9 °F /  18.3 °C 30.1in /  1019.3hPa Calm     84% 0.02in /  0.5mm 70 W/m2
20:28 69.1 °F /  20.6 °C 64.4 °F /  18 °C 30.1in /  1019.3hPa Calm     85% 0.03in /  0.8mm 69 W/m2
20:34 68.5 °F /  20.3 °C 64.2 °F /  17.9 °C 30.1in /  1019.3hPa Calm   1mph /  1.6km/h 86% 0.04in /  1.0mm 63 W/m2
20:39 67.8 °F /  19.9 °C 64.2 °F /  17.9 °C 30.1in /  1019.3hPa Calm     88% 0.04in /  1.0mm 53 W/m2
20:44 67.6 °F /  19.8 °C 64 °F /  17.8 °C 30.1in /  1019.3hPa WSW 0.9mph /  1.4km/h 1mph /  1.6km/h 88% 0.04in /  1.0mm 44 W/m2
20:49 67.1 °F /  19.5 °C 63.7 °F /  17.6 °C 30.1in /  1019.3hPa Calm     89% 0.05in /  1.3mm 39 W/m2
20:54 66.7 °F /  19.3 °C 63.7 °F /  17.6 °C 30.1in /  1019.3hPa Calm   1mph /  1.6km/h 90% 0.05in /  1.3mm 35 W/m2
20:59 66.6 °F /  19.2 °C 63.5 °F /  17.5 °C 30.1in /  1019.6hPa Calm     90% 0.05in /  1.3mm 26 W/m2
21:04 66.4 °F /  19.1 °C 63.7 °F /  17.6 °C 30.1in /  1019.6hPa WSW 0.9mph /  1.4km/h 1mph /  1.6km/h 91% 0.05in /  1.3mm 19 W/m2
21:09 66 °F /  18.9 °C 63 °F /  17.2 °C 30.1in /  1019.6hPa WSW 0.9mph /  1.4km/h 2mph /  3.2km/h 90% 0.05in /  1.3mm 16 W/m2
21:14 65.7 °F /  18.7 °C 63 °F /  17.2 °C 30.1in /  1019.6hPa Calm     91% 0.04in /  1.0mm 16 W/m2
21:19 65.7 °F /  18.7 °C 63 °F /  17.2 °C 30.1in /  1019.6hPa Calm     91% 0.03in /  0.8mm 14 W/m2
21:24 65.5 °F /  18.6 °C 63.1 °F /  17.3 °C 30.1in /  1019.6hPa Calm     92% 0.02in /  0.5mm 11 W/m2
21:29 65.3 °F /  18.5 °C 63 °F /  17.2 °C 30.1in /  1019.6hPa Calm   1mph /  1.6km/h 92% 0.02in /  0.5mm 9 W/m2
21:34 65.1 °F /  18.4 °C 62.8 °F /  17.1 °C 30.1in /  1019.6hPa Calm     92% 0.01in /  0.2mm 9 W/m2
21:39 64.9 °F /  18.3 °C 62.6 °F /  17 °C 30.1in /  1019.6hPa Calm   1mph /  1.6km/h 92% 0.01in /  0.2mm 5 W/m2
21:44 64.8 °F /  18.2 °C 62.6 °F /  17 °C 30.1in /  1019.6hPa Calm     93% 0.01in /  0.2mm 0 W/m2
21:49 64.8 °F /  18.2 °C 62.6 °F /  17 °C 30.1in /  1019.6hPa WSW 0.9mph /  1.4km/h 2mph /  3.2km/h 93% 0in /  0.0mm 0 W/m2
21:54 64.8 °F /  18.2 °C 62.6 °F /  17 °C 30.1in /  1020.0hPa Calm   1mph /  1.6km/h 93% 0in /  0.0mm 0 W/m2
21:59 64.6 °F /  18.1 °C 62.4 °F /  16.9 °C 30.1in /  1020.0hPa WSW 0.9mph /  1.4km/h 2mph /  3.2km/h 93% 0in /  0.0mm 0 W/m2
22:04 64.6 °F /  18.1 °C 62.4 °F /  16.9 °C 30.1in /  1020.0hPa WSW 0.9mph /  1.4km/h 2mph /  3.2km/h 93% 0in /  0.0mm 0 W/m2
22:09 64.6 °F /  18.1 °C 62.4 °F /  16.9 °C 30.1in /  1020.0hPa WSW 0.9mph /  1.4km/h 1mph /  1.6km/h 93% 0in /  0.0mm 0 W/m2
22:14 64.4 °F /  18 °C 62.6 °F /  17 °C 30.1in /  1020.0hPa Calm   2mph /  3.2km/h 94% 0in /  0.0mm 0 W/m2
22:19 64.2 °F /  17.9 °C 62.4 °F /  16.9 °C 30.1in /  1020.0hPa Calm   1mph /  1.6km/h 94% 0in /  0.0mm 0 W/m2
22:24 64.2 °F /  17.9 °C 62.4 °F /  16.9 °C 30.1in /  1020.0hPa Calm   2mph /  3.2km/h 94% 0in /  0.0mm 0 W/m2
22:29 64 °F /  17.8 °C 62.2 °F /  16.8 °C 30.1in /  1020.0hPa Calm   1mph /  1.6km/h 94% 0in /  0.0mm 0 W/m2
22:34 63.9 °F /  17.7 °C 62.1 °F /  16.7 °C 30.1in /  1020.0hPa Calm     94% 0in /  0.0mm 0 W/m2
22:39 63.9 °F /  17.7 °C 62.1 °F /  16.7 °C 30.1in /  1020.0hPa Calm     94% 0in /  0.0mm 0 W/m2
22:44 63.7 °F /  17.6 °C 61.9 °F /  16.6 °C 30.1in /  1020.0hPa Calm     94% 0in /  0.0mm 0 W/m2
22:49 63.7 °F /  17.6 °C 61.9 °F /  16.6 °C 30.1in /  1020.3hPa Calm     94% 0in /  0.0mm 0 W/m2
22:54 63.7 °F /  17.6 °C 61.9 °F /  16.6 °C 30.1in /  1020.3hPa Calm     94% 0in /  0.0mm 0 W/m2
22:59 63.5 °F /  17.5 °C 61.7 °F /  16.5 °C 30.1in /  1020.3hPa Calm     94% 0in /  0.0mm 0 W/m2
23:04 63.3 °F /  17.4 °C 61.5 °F /  16.4 °C 30.1in /  1020.3hPa Calm     94% 0in /  0.0mm 0 W/m2
23:09 63.3 °F /  17.4 °C 61.5 °F /  16.4 °C 30.1in /  1020.3hPa Calm     94% 0in /  0.0mm 0 W/m2
23:14 63.3 °F /  17.4 °C 61.9 °F /  16.6 °C 30.1in /  1020.3hPa Calm     95% 0in /  0.0mm 0 W/m2
23:19 63.3 °F /  17.4 °C 61.5 °F /  16.4 °C 30.1in /  1020.7hPa Calm     94% 0in /  0.0mm 0 W/m2
23:24 63.3 °F /  17.4 °C 61.9 °F /  16.6 °C 30.1in /  1020.3hPa Calm     95% 0in /  0.0mm 0 W/m2
23:29 63.3 °F /  17.4 °C 61.9 °F /  16.6 °C 30.1in /  1020.3hPa Calm     95% 0in /  0.0mm 0 W/m2
23:34 63.1 °F /  17.3 °C 61.7 °F /  16.5 °C 30.1in /  1020.3hPa Calm     95% 0in /  0.0mm 0 W/m2
23:39 63.3 °F /  17.4 °C 61.9 °F /  16.6 °C 30.1in /  1020.3hPa Calm     95% 0in /  0.0mm 0 W/m2
23:44 63.1 °F /  17.3 °C 61.7 °F /  16.5 °C 30.1in /  1020.7hPa Calm     95% 0in /  0.0mm 0 W/m2
23:49 63.1 °F /  17.3 °C 61.7 °F /  16.5 °C 30.1in /  1020.3hPa Calm     95% 0in /  0.0mm 0 W/m2
23:54 63.1 °F /  17.3 °C 61.7 °F /  16.5 °C 30.1in /  1020.7hPa Calm     95% 0in /  0.0mm 0 W/m2
23:59 63.3 °F /  17.4 °C 61.9 °F /  16.6 °C 30.1in /  1020.7hPa Calm     95% 0in /  0.0mm 0 W/m2
Juneau County Weather
Compliments of Weather Underground - 4 mb